createdAt,value
2023-04-06T05:42:52.739Z,-4.20
2023-04-06T05:45:22.336Z,-4.10
2023-04-06T05:47:50.909Z,-3.90
2023-04-06T05:50:19.681Z,-3.70
2023-04-06T05:52:51.369Z,-3.50
2023-04-06T05:55:19.955Z,-3.30
2023-04-06T05:57:48.435Z,-3.30
2023-04-06T06:00:18.903Z,-3.20
2023-04-06T06:02:47.279Z,-3.00
2023-04-06T06:05:16.017Z,-2.50
2023-04-06T06:07:44.512Z,-1.50
2023-04-06T06:10:13.359Z,0.10
2023-04-06T06:12:41.944Z,1.60
2023-04-06T06:15:11.091Z,2.80
2023-04-06T06:17:40.930Z,3.90
2023-04-06T06:20:10.465Z,4.70
2023-04-06T06:22:38.753Z,5.40
2023-04-06T06:25:07.281Z,6.20
2023-04-06T06:27:35.658Z,7.00
2023-04-06T06:30:04.341Z,7.90
2023-04-06T06:32:32.761Z,8.60
2023-04-06T06:35:02.524Z,9.40
2023-04-06T06:37:31.342Z,9.70
2023-04-06T06:39:59.714Z,10.10
2023-04-06T06:42:28.253Z,10.60
2023-04-06T06:44:56.828Z,10.80
2023-04-06T06:47:25.168Z,11.30
2023-04-06T06:49:53.467Z,11.60
2023-04-06T06:52:24.989Z,12.10
2023-04-06T06:54:54.861Z,12.20
2023-04-06T06:57:24.153Z,12.00
2023-04-06T06:59:52.650Z,11.60
2023-04-06T07:02:21.030Z,11.40
2023-04-06T07:04:50.732Z,11.20
2023-04-06T07:07:19.230Z,11.10
2023-04-06T07:09:48.976Z,11.30
2023-04-06T07:12:17.692Z,10.70
2023-04-06T07:14:46.087Z,10.40
2023-04-06T07:17:14.537Z,9.90
2023-04-06T07:19:42.996Z,9.50
2023-04-06T07:22:11.396Z,9.60
2023-04-06T07:24:39.821Z,9.70
2023-04-06T07:27:09.564Z,9.60
2023-04-06T07:29:37.912Z,9.90
2023-04-06T07:32:06.507Z,9.70
2023-04-06T07:34:34.808Z,9.80
2023-04-06T07:37:04.250Z,9.80
2023-04-06T07:39:32.734Z,9.60
2023-04-06T07:42:01.186Z,9.60
2023-04-06T07:44:31.188Z,9.80
2023-04-06T07:46:59.557Z,10.10
2023-04-06T07:49:27.948Z,10.10
2023-04-06T07:51:56.571Z,10.60
2023-04-06T07:54:24.914Z,10.50
2023-04-06T07:56:53.205Z,10.00
2023-04-06T07:59:21.560Z,10.10
2023-04-06T08:01:51.364Z,10.30
2023-04-06T08:04:19.711Z,10.30
2023-04-06T08:06:48.071Z,10.70
2023-04-06T08:09:16.869Z,10.80
2023-04-06T08:11:45.747Z,11.50
2023-04-06T08:14:14.044Z,11.80
2023-04-06T08:16:42.348Z,12.10
2023-04-06T08:19:12.272Z,11.90
2023-04-06T08:21:42.069Z,11.90
2023-04-06T08:24:10.789Z,11.40
2023-04-06T08:26:39.216Z,11.50
2023-04-06T08:29:08.520Z,11.00
2023-04-06T08:31:37.154Z,11.10
2023-04-06T08:34:06.767Z,11.80
2023-04-06T08:36:36.744Z,12.50
2023-04-06T08:39:05.744Z,13.50
2023-04-06T08:41:34.229Z,13.60
2023-04-06T08:44:04.382Z,13.40
2023-04-06T08:46:33.883Z,12.60
2023-04-06T08:49:04.633Z,12.00
2023-04-06T08:51:33.168Z,11.90
2023-04-06T08:54:02.964Z,13.30
2023-04-06T08:56:31.349Z,13.00
2023-04-06T08:59:00.506Z,12.20
2023-04-06T09:01:30.318Z,11.90
2023-04-06T09:04:01.262Z,12.40
2023-04-06T09:06:29.936Z,12.80
2023-04-06T09:08:59.097Z,12.80
2023-04-06T09:11:28.831Z,13.00
2023-04-06T09:13:58.405Z,14.20
2023-04-06T09:16:27.049Z,14.60
2023-04-06T09:18:55.665Z,14.40
2023-04-06T09:21:25.944Z,13.60
2023-04-06T09:24:02.303Z,12.10
2023-04-06T09:26:34.680Z,12.20
2023-04-06T09:29:04.523Z,12.90
2023-04-06T09:31:34.593Z,12.70
2023-04-06T09:34:03.373Z,13.00
2023-04-06T09:36:35.886Z,12.90
2023-04-06T09:39:06.240Z,12.70
2023-04-06T09:41:37.631Z,12.70
2023-04-06T09:44:07.586Z,12.70
2023-04-06T09:46:57.982Z,12.20
2023-04-06T09:49:30.972Z,12.70
2023-04-06T09:52:02.070Z,12.90
2023-04-06T09:54:32.586Z,13.10
2023-04-06T09:57:11.270Z,12.70
2023-04-06T09:59:52.327Z,12.40
2023-04-06T10:02:29.877Z,11.30
2023-04-06T10:05:03.529Z,12.20
2023-04-06T10:07:32.423Z,12.40
2023-04-06T10:10:02.409Z,12.10
2023-04-06T10:12:32.761Z,11.60
2023-04-06T10:15:01.623Z,12.20
2023-04-06T10:17:30.038Z,12.40
2023-04-06T10:20:13.785Z,12.50
2023-04-06T10:22:46.056Z,13.70
2023-04-06T10:25:14.523Z,14.30
2023-04-06T10:27:44.269Z,14.50
2023-04-06T10:30:13.160Z,13.60
2023-04-06T10:32:42.223Z,13.70
2023-04-06T10:35:12.023Z,14.00
2023-04-06T10:37:51.752Z,13.40
2023-04-06T10:40:26.122Z,13.30
2023-04-06T10:42:56.878Z,13.20
2023-04-06T10:45:26.376Z,13.70
2023-04-06T10:47:55.943Z,14.10
2023-04-06T10:50:25.991Z,15.50
2023-04-06T10:53:04.744Z,16.70
2023-04-06T10:55:33.598Z,16.40
2023-04-06T10:58:03.396Z,15.40
2023-04-06T11:00:43.333Z,14.40
2023-04-06T11:03:16.417Z,13.10
2023-04-06T11:05:48.164Z,12.10
2023-04-06T11:08:25.901Z,11.10
2023-04-06T11:10:54.255Z,10.60
2023-04-06T11:13:24.053Z,10.40
2023-04-06T11:15:55.298Z,10.30
2023-04-06T11:18:23.724Z,10.20
2023-04-06T11:20:52.142Z,10.20
2023-04-06T11:23:27.454Z,9.60
2023-04-06T11:26:01.594Z,9.10
2023-04-06T11:28:31.667Z,8.90
2023-04-06T11:31:01.434Z,8.70
2023-04-06T11:33:31.734Z,8.80
2023-04-06T11:36:00.279Z,9.20
2023-04-06T11:38:32.352Z,9.20
2023-04-06T11:41:01.198Z,9.70
2023-04-06T11:43:31.625Z,10.20
2023-04-06T11:46:07.840Z,10.20
2023-04-06T11:48:47.124Z,9.60
2023-04-06T11:51:24.886Z,9.60
2023-04-06T11:53:53.191Z,9.40
2023-04-06T11:56:31.980Z,9.10
2023-04-06T11:59:01.881Z,9.30
2023-04-06T12:01:34.119Z,9.00
2023-04-06T12:04:06.214Z,9.00
2023-04-06T12:06:34.680Z,9.50
2023-04-06T12:09:03.077Z,11.00
2023-04-06T12:11:31.608Z,12.40
2023-04-06T12:14:02.759Z,13.80
2023-04-06T12:16:31.398Z,14.70
2023-04-06T12:18:59.802Z,14.40
2023-04-06T12:21:29.554Z,13.60
2023-04-06T12:23:58.008Z,12.80
2023-04-06T12:26:26.644Z,11.80
2023-04-06T12:28:55.168Z,11.10
2023-04-06T12:31:26.628Z,10.30
2023-04-06T12:33:55.133Z,9.70
2023-04-06T12:36:26.769Z,9.20
2023-04-06T12:38:55.197Z,9.20
2023-04-06T12:41:24.461Z,10.40
2023-04-06T12:43:52.976Z,11.80
2023-04-06T12:46:22.110Z,13.10
2023-04-06T12:48:54.623Z,13.60
2023-04-06T12:51:23.130Z,13.90
2023-04-06T12:53:51.483Z,14.30
2023-04-06T12:56:22.010Z,14.70
2023-04-06T12:58:50.915Z,15.20
2023-04-06T13:01:19.623Z,15.80
2023-04-06T13:03:48.049Z,16.00
2023-04-06T13:06:18.223Z,16.30
2023-04-06T13:08:51.369Z,16.40
2023-04-06T13:11:21.757Z,16.30
2023-04-06T13:13:50.313Z,16.40
2023-04-06T13:16:18.756Z,16.30
2023-04-06T13:18:47.196Z,15.90
2023-04-06T13:21:18.571Z,16.00
2023-04-06T13:23:47.201Z,15.10
2023-04-06T13:26:17.473Z,14.10
2023-04-06T13:28:46.018Z,14.00
2023-04-06T13:31:14.841Z,13.40
2023-04-06T13:33:43.476Z,13.10
2023-04-06T13:36:12.463Z,12.70
2023-04-06T13:38:42.636Z,13.40
2023-04-06T13:41:11.415Z,13.30
2023-04-06T13:43:39.913Z,12.50
2023-04-06T13:46:08.604Z,11.40
2023-04-06T13:48:37.056Z,10.90
2023-04-06T13:51:11.409Z,10.50
2023-04-06T13:53:42.032Z,10.10
2023-04-06T13:56:11.054Z,9.70
2023-04-06T13:58:39.433Z,9.40
2023-04-06T14:01:11.171Z,9.60
2023-04-06T14:03:40.797Z,9.70
2023-04-06T14:06:20.780Z,9.70
2023-04-06T14:09:00.348Z,9.30
2023-04-06T14:11:28.958Z,9.20
2023-04-06T14:13:58.626Z,9.40
2023-04-06T14:16:27.568Z,9.70
2023-04-06T14:18:56.150Z,10.10
2023-04-06T14:21:24.490Z,10.20
2023-04-06T14:23:58.062Z,10.40
2023-04-06T14:26:33.123Z,10.60
2023-04-06T14:29:02.206Z,10.40
2023-04-06T14:31:30.890Z,10.20
2023-04-06T14:33:59.273Z,10.00
2023-04-06T14:36:30.294Z,9.90
2023-04-06T14:38:59.748Z,9.60
2023-04-06T14:41:28.041Z,9.50
2023-04-06T14:43:57.832Z,9.50
2023-04-06T14:46:26.696Z,9.40
2023-04-06T14:48:56.321Z,9.20
2023-04-06T14:51:26.498Z,9.30
2023-04-06T14:53:54.962Z,9.20
2023-04-06T14:56:24.088Z,8.90
2023-04-06T14:58:53.125Z,9.00
2023-04-06T15:01:23.084Z,9.70
2023-04-06T15:03:51.598Z,10.60
2023-04-06T15:06:23.874Z,11.40
2023-04-06T15:08:52.334Z,12.60
2023-04-06T15:11:21.204Z,12.50
2023-04-06T15:13:49.678Z,12.50
2023-04-06T15:16:18.278Z,12.10
2023-04-06T15:18:48.203Z,12.20
2023-04-06T15:21:16.669Z,12.50
2023-04-06T15:23:45.160Z,13.10
2023-04-06T15:26:13.813Z,13.10
2023-04-06T15:28:42.180Z,12.60
2023-04-06T15:31:24.449Z,11.90
2023-04-06T15:34:03.768Z,12.10
2023-04-06T15:36:32.559Z,11.80
2023-04-06T15:39:01.133Z,11.10
2023-04-06T15:41:29.725Z,11.10
2023-04-06T15:43:58.396Z,11.80
2023-04-06T15:46:28.398Z,12.50
2023-04-06T15:48:58.071Z,12.50
2023-04-06T15:51:30.284Z,11.80
2023-04-06T15:54:02.923Z,12.20
2023-04-06T15:56:31.541Z,12.60
2023-04-06T15:59:04.509Z,11.90
2023-04-06T16:01:33.158Z,11.10
2023-04-06T16:04:01.704Z,11.00
2023-04-06T16:06:38.217Z,11.80
2023-04-06T16:09:06.667Z,12.60
2023-04-06T16:11:37.101Z,12.70
2023-04-06T16:14:05.657Z,13.00
2023-04-06T16:16:34.367Z,13.00
2023-04-06T16:19:02.953Z,13.30
2023-04-06T16:21:31.710Z,13.10
2023-04-06T16:24:38.202Z,12.10
2023-04-06T16:27:06.763Z,11.00
2023-04-06T16:29:39.969Z,10.00
2023-04-06T16:32:11.273Z,9.30
2023-04-06T16:34:39.789Z,8.80
2023-04-06T16:37:08.303Z,8.40
2023-04-06T16:39:38.581Z,8.10
2023-04-06T16:42:07.732Z,7.80
2023-04-06T16:44:39.738Z,7.60
2023-04-06T16:47:09.185Z,7.40
2023-04-06T16:49:37.514Z,7.20
2023-04-06T16:52:06.419Z,7.10
2023-04-06T16:54:39.225Z,7.00
2023-04-06T16:57:08.130Z,6.90
2023-04-06T16:59:36.668Z,6.80
2023-04-06T17:02:04.992Z,6.70
2023-04-06T17:04:33.605Z,6.70
2023-04-06T17:07:02.197Z,6.60
2023-04-06T17:12:02.219Z,6.70
2023-04-06T17:14:30.437Z,6.60
2023-04-06T17:16:58.807Z,6.40
2023-04-06T17:19:27.148Z,6.20
2023-04-06T17:21:55.417Z,6.10
2023-04-06T17:24:23.724Z,5.90
2023-04-06T17:26:51.996Z,5.70
2023-04-06T17:29:24.252Z,5.50
2023-04-06T17:31:52.570Z,5.30
2023-04-06T17:34:20.911Z,5.10
2023-04-06T17:36:49.252Z,4.90
2023-04-06T17:39:20.671Z,4.60
2023-04-06T17:41:49.062Z,4.40
2023-04-06T17:44:17.648Z,4.10
2023-04-06T17:46:47.522Z,4.00
2023-04-06T17:49:18.587Z,3.80
2023-04-06T17:51:47.032Z,3.70
2023-04-06T17:54:15.776Z,3.40
2023-04-06T17:56:44.105Z,3.30
2023-04-06T17:59:12.817Z,3.10
2023-04-06T18:01:41.458Z,3.00
2023-04-06T18:04:14.338Z,2.80
2023-04-06T18:06:44.025Z,2.60
2023-04-06T18:09:12.793Z,2.50
2023-04-06T18:11:41.723Z,2.40
2023-04-06T18:14:12.791Z,2.40
2023-04-06T18:16:47.709Z,2.30
2023-04-06T18:19:17.671Z,2.10
2023-04-06T18:21:46.266Z,1.90
2023-04-06T18:24:27.156Z,1.80
2023-04-06T18:27:03.338Z,1.70
2023-04-06T18:29:36.163Z,1.60
2023-04-06T18:32:08.230Z,1.60
2023-04-06T18:34:39.419Z,1.50
2023-04-06T18:37:08.161Z,1.40
2023-04-06T18:39:37.515Z,1.40
2023-04-06T18:42:06.450Z,1.40
2023-04-06T18:44:38.055Z,1.30
2023-04-06T18:47:07.003Z,1.10
2023-04-06T18:49:35.608Z,1.00
2023-04-06T18:52:07.046Z,0.90
2023-04-06T18:54:36.794Z,0.80
2023-04-06T18:57:13.132Z,0.70
2023-04-06T18:59:42.827Z,0.60
2023-04-06T19:02:33.273Z,0.50
2023-04-06T19:05:20.066Z,0.50
2023-04-06T19:08:42.540Z,0.40
2023-04-06T19:11:37.811Z,0.40
2023-04-06T19:18:20.715Z,0.30
2023-04-06T19:21:40.348Z,0.10
2023-04-06T19:27:44.776Z,0.00
2023-04-06T19:30:14.566Z,0.00
2023-04-06T19:32:43.337Z,0.00
2023-04-06T19:35:12.085Z,-0.10
2023-04-06T19:37:41.353Z,-0.30
2023-04-06T19:40:12.016Z,-0.30
2023-04-06T19:42:40.866Z,-0.40
2023-04-06T20:27:36.199Z,-1.20
2023-04-06T20:30:55.874Z,-1.30
2023-04-06T20:34:13.794Z,-1.30
2023-04-06T20:40:53.606Z,-1.30
2023-04-06T20:55:05.056Z,-1.60
2023-04-06T21:00:42.769Z,-1.70
2023-04-06T21:36:49.184Z,-2.00
2023-04-06T21:40:19.773Z,-2.10
2023-04-06T21:43:34.698Z,-2.10
